EDT,Max TemperatureF,Mean TemperatureF,Min TemperatureF,Max Dew PointF,MeanDew PointF,Min DewpointF,Max Humidity, Mean Humidity, Min Humidity, Max Sea Level PressureIn, Mean Sea Level PressureIn, Min Sea Level PressureIn, Max VisibilityMiles, Mean VisibilityMiles, Min VisibilityMiles, Max Wind SpeedMPH, Mean Wind SpeedMPH, Max Gust SpeedMPH,PrecipitationIn, CloudCover, Events, WindDirDegrees
2013-5-1,84,70,56,56,54,51,75,55,34,30.19,30.13,30.02,10,10,10,17,6,24,0.00,0,,158
2013-5-2,82,70,58,56,54,50,80,60,39,30.19,30.15,30.08,10,10,10,13,5,20,0.00,1,,144
2013-5-3,80,70,59,55,51,48,72,67,61,30.09,30.07,30.05,10,10,10,17,3,26,0.00,2,,124
2013-5-4,75,67,58,48,40,32,48,35,22,30.07,30.04,29.99,10,10,10,16,8,23,0.00,0,,107
2013-5-5,76,64,52,46,39,28,66,44,22,30.07,30.03,29.99,10,10,10,16,6,23,0.00,0,,96
2013-5-6,77,62,47,47,40,31,71,46,20,30.05,30.01,29.96,10,10,10,12,4,16,0.00,1,,69
2013-5-7,77,63,48,53,49,46,93,65,36,30.06,30.02,29.99,10,10,9,13,3,20,0.00,2,,119
2013-5-8,81,65,49,57,52,47,96,64,32,30.04,30.00,29.96,10,9,2,18,3,23,0.47,3,Rain-Thunderstorm,164
2013-5-9,80,65,50,60,51,38,100,62,23,29.99,29.96,29.90,10,8,2,25,2,35,0.16,2,Rain,201
2013-5-10,63,54,45,60,53,43,100,89,78,29.93,29.83,29.76,10,5,2,15,7,21,0.17,8,Rain,6
2013-5-11,56,47,37,46,41,32,93,74,54,29.98,29.90,29.81,10,10,3,31,11,39,0.03,6,Rain,297
2013-5-12,48,41,33,35,29,26,92,71,49,30.14,30.05,29.96,10,10,10,22,12,31,0.00,4,,298
2013-5-13,56,44,31,33,26,18,92,58,24,30.21,30.16,30.09,10,10,10,18,5,24,0.00,2,,318
2013-5-14,80,64,47,56,43,26,63,51,39,30.08,29.86,29.70,10,10,10,23,9,29,T,2,,194
2013-5-15,77,67,56,59,50,40,66,50,33,29.83,29.74,29.60,10,10,10,23,11,30,0.00,0,,286
2013-5-16,82,66,49,48,45,43,83,55,26,29.99,29.91,29.83,10,10,10,15,6,21,0.00,0,,302
2013-5-17,78,66,53,48,45,40,66,50,33,30.11,30.06,30.00,10,10,10,13,6,21,0.00,2,,89
2013-5-18,82,67,52,59,50,40,63,53,42,30.13,30.07,29.99,10,10,10,9,4,14,0.00,2,,142
2013-5-19,87,71,55,63,55,45,72,58,44,30.02,29.94,29.84,10,10,10,12,3,29,0.00,1,,164
2013-5-20,88,78,67,69,65,61,87,64,40,29.89,29.83,29.77,10,9,7,17,10,30,0.00,3,,172
2013-5-21,82,73,63,66,63,57,93,72,51,29.88,29.77,29.71,10,8,1,21,9,28,0.75,5,Rain-Thunderstorm,201
2013-5-22,73,66,59,65,63,58,93,83,73,29.73,29.69,29.65,10,8,1,25,8,39,0.85,7,Rain-Thunderstorm,212
2013-5-23,62,54,45,59,50,38,93,80,66,30.21,29.91,29.72,10,8,1,21,10,29,0.14,7,Rain,310
2013-5-24,61,48,35,41,38,33,92,67,42,30.39,30.33,30.21,10,10,10,15,7,24,0.00,1,,336
2013-5-25,67,53,38,44,38,34,92,62,31,30.40,30.35,30.30,10,10,10,12,3,26,T,0,,16
2013-5-26,70,56,41,42,38,32,89,57,25,30.35,30.29,30.21,10,10,10,10,3,23,0.00,0,,107
2013-5-27,59,55,51,54,47,36,100,70,40,30.21,30.09,29.96,10,7,2,15,6,41,0.16,7,Rain,112
2013-5-28,79,67,55,70,61,52,100,82,64,29.96,29.86,29.79,10,6,1,22,9,31,0.57,8,Rain-Thunderstorm,193
2013-5-29,79,71,63,70,64,61,93,75,56,29.99,29.93,29.82,10,10,9,16,6,29,0.11,3,Rain-Thunderstorm,221
2013-5-30,87,77,67,68,65,62,87,68,48,30.01,29.97,29.92,10,10,10,23,11,30,T,1,,183
2013-5-31,78,72,66,67,65,63,93,79,64,29.96,29.89,29.83,10,10,10,25,12,35,0.06,4,Rain-Thunderstorm,183